sensor_id;sensor_type;location;lat;lon;timestamp;temperature;humidity
8862;DHT22;4799;50.996;4.754;2023-03-12T00:02:12;4.30;99.90
8862;DHT22;4799;50.996;4.754;2023-03-12T00:04:38;4.20;99.90
8862;DHT22;4799;50.996;4.754;2023-03-12T00:07:03;4.20;99.90
8862;DHT22;4799;50.996;4.754;2023-03-12T00:09:34;4.30;99.90
8862;DHT22;4799;50.996;4.754;2023-03-12T00:12:01;4.30;99.90
8862;DHT22;4799;50.996;4.754;2023-03-12T00:14:26;4.20;99.90
8862;DHT22;4799;50.996;4.754;2023-03-12T00:16:52;4.30;99.90
8862;DHT22;4799;50.996;4.754;2023-03-12T00:19:20;4.30;99.90
8862;DHT22;4799;50.996;4.754;2023-03-12T00:21:46;4.30;99.90
8862;DHT22;4799;50.996;4.754;2023-03-12T00:24:12;4.30;99.90
8862;DHT22;4799;50.996;4.754;2023-03-12T00:26:38;4.30;99.90
8862;DHT22;4799;50.996;4.754;2023-03-12T00:29:04;4.30;99.90
8862;DHT22;4799;50.996;4.754;2023-03-12T00:31:31;4.30;99.90
8862;DHT22;4799;50.996;4.754;2023-03-12T00:33:59;4.30;99.90
8862;DHT22;4799;50.996;4.754;2023-03-12T00:36:27;4.30;99.90
8862;DHT22;4799;50.996;4.754;2023-03-12T00:38:54;4.30;99.90
8862;DHT22;4799;50.996;4.754;2023-03-12T00:41:21;4.30;99.90
8862;DHT22;4799;50.996;4.754;2023-03-12T00:43:48;4.30;99.90
8862;DHT22;4799;50.996;4.754;2023-03-12T00:46:14;4.30;99.90
8862;DHT22;4799;50.996;4.754;2023-03-12T00:48:40;4.30;99.90
8862;DHT22;4799;50.996;4.754;2023-03-12T00:51:07;4.30;99.90
8862;DHT22;4799;50.996;4.754;2023-03-12T00:53:34;4.30;99.90
8862;DHT22;4799;50.996;4.754;2023-03-12T00:56:00;4.30;99.90
8862;DHT22;4799;50.996;4.754;2023-03-12T00:58:26;4.30;99.90
8862;DHT22;4799;50.996;4.754;2023-03-12T01:00:52;4.30;99.90
8862;DHT22;4799;50.996;4.754;2023-03-12T01:03:18;4.40;99.90
8862;DHT22;4799;50.996;4.754;2023-03-12T01:05:44;4.40;99.90
8862;DHT22;4799;50.996;4.754;2023-03-12T01:08:10;4.40;99.90
8862;DHT22;4799;50.996;4.754;2023-03-12T01:10:36;4.40;99.90
8862;DHT22;4799;50.996;4.754;2023-03-12T01:13:05;4.40;99.90
8862;DHT22;4799;50.996;4.754;2023-03-12T01:15:31;4.40;99.90
8862;DHT22;4799;50.996;4.754;2023-03-12T01:17:56;4.40;99.90
8862;DHT22;4799;50.996;4.754;2023-03-12T01:20:22;4.50;99.90
8862;DHT22;4799;50.996;4.754;2023-03-12T01:22:48;4.50;99.90
8862;DHT22;4799;50.996;4.754;2023-03-12T01:25:14;4.50;99.90
8862;DHT22;4799;50.996;4.754;2023-03-12T01:27:40;4.50;99.90
8862;DHT22;4799;50.996;4.754;2023-03-12T01:30:06;4.50;99.90
8862;DHT22;4799;50.996;4.754;2023-03-12T01:32:32;4.50;99.90
8862;DHT22;4799;50.996;4.754;2023-03-12T01:34:58;4.50;99.90
8862;DHT22;4799;50.996;4.754;2023-03-12T01:37:25;4.50;99.90
8862;DHT22;4799;50.996;4.754;2023-03-12T01:39:51;4.50;99.90
8862;DHT22;4799;50.996;4.754;2023-03-12T01:42:17;4.60;99.90
8862;DHT22;4799;50.996;4.754;2023-03-12T01:45:01;4.60;99.90
8862;DHT22;4799;50.996;4.754;2023-03-12T01:47:28;4.60;99.90
8862;DHT22;4799;50.996;4.754;2023-03-12T01:49:57;4.60;99.90
8862;DHT22;4799;50.996;4.754;2023-03-12T01:52:30;4.60;99.90
8862;DHT22;4799;50.996;4.754;2023-03-12T01:55:00;4.60;99.90
8862;DHT22;4799;50.996;4.754;2023-03-12T01:57:38;4.70;99.90
8862;DHT22;4799;50.996;4.754;2023-03-12T02:00:24;4.70;99.90
8862;DHT22;4799;50.996;4.754;2023-03-12T02:02:52;4.70;99.90
8862;DHT22;4799;50.996;4.754;2023-03-12T02:05:24;4.70;99.90
8862;DHT22;4799;50.996;4.754;2023-03-12T02:07:51;4.80;99.90
8862;DHT22;4799;50.996;4.754;2023-03-12T02:10:17;4.70;99.90
8862;DHT22;4799;50.996;4.754;2023-03-12T02:12:44;4.70;99.90
8862;DHT22;4799;50.996;4.754;2023-03-12T02:15:10;4.70;99.90
8862;DHT22;4799;50.996;4.754;2023-03-12T02:17:37;4.70;99.90
8862;DHT22;4799;50.996;4.754;2023-03-12T02:20:27;4.70;99.90
8862;DHT22;4799;50.996;4.754;2023-03-12T02:25:47;4.70;99.90
8862;DHT22;4799;50.996;4.754;2023-03-12T02:28:16;4.70;99.90
8862;DHT22;4799;50.996;4.754;2023-03-12T02:30:46;4.70;99.90
8862;DHT22;4799;50.996;4.754;2023-03-12T02:33:13;4.70;99.90
8862;DHT22;4799;50.996;4.754;2023-03-12T02:35:45;4.70;99.90
8862;DHT22;4799;50.996;4.754;2023-03-12T02:38:42;4.70;99.90
8862;DHT22;4799;50.996;4.754;2023-03-12T02:41:30;4.60;99.90
8862;DHT22;4799;50.996;4.754;2023-03-12T02:44:07;4.60;99.90
8862;DHT22;4799;50.996;4.754;2023-03-12T02:46:54;4.60;99.90
8862;DHT22;4799;50.996;4.754;2023-03-12T02:49:22;4.60;99.90
8862;DHT22;4799;50.996;4.754;2023-03-12T02:51:48;4.60;99.90
8862;DHT22;4799;50.996;4.754;2023-03-12T02:54:16;4.60;99.90
8862;DHT22;4799;50.996;4.754;2023-03-12T02:56:42;4.60;99.90
8862;DHT22;4799;50.996;4.754;2023-03-12T02:59:09;4.60;99.90
8862;DHT22;4799;50.996;4.754;2023-03-12T03:01:35;4.60;99.90
8862;DHT22;4799;50.996;4.754;2023-03-12T03:04:04;4.60;99.90
8862;DHT22;4799;50.996;4.754;2023-03-12T03:06:30;4.60;99.90
8862;DHT22;4799;50.996;4.754;2023-03-12T03:08:57;4.60;99.90
8862;DHT22;4799;50.996;4.754;2023-03-12T03:11:23;4.60;99.90
8862;DHT22;4799;50.996;4.754;2023-03-12T03:13:53;4.60;99.90
8862;DHT22;4799;50.996;4.754;2023-03-12T03:16:20;4.60;99.90
8862;DHT22;4799;50.996;4.754;2023-03-12T03:18:45;4.60;99.90
8862;DHT22;4799;50.996;4.754;2023-03-12T03:21:12;4.60;99.90
8862;DHT22;4799;50.996;4.754;2023-03-12T03:23:50;4.60;99.90
8862;DHT22;4799;50.996;4.754;2023-03-12T03:26:20;4.60;99.90
8862;DHT22;4799;50.996;4.754;2023-03-12T03:28:46;4.60;99.90
8862;DHT22;4799;50.996;4.754;2023-03-12T03:31:12;4.60;99.90
8862;DHT22;4799;50.996;4.754;2023-03-12T03:33:38;4.60;99.90
8862;DHT22;4799;50.996;4.754;2023-03-12T03:36:05;4.60;99.90
8862;DHT22;4799;50.996;4.754;2023-03-12T03:38:32;4.60;99.90
8862;DHT22;4799;50.996;4.754;2023-03-12T03:41:00;4.60;99.90
8862;DHT22;4799;50.996;4.754;2023-03-12T03:43:26;4.60;99.90
8862;DHT22;4799;50.996;4.754;2023-03-12T03:45:59;4.60;99.90
8862;DHT22;4799;50.996;4.754;2023-03-12T03:48:25;4.60;99.90
8862;DHT22;4799;50.996;4.754;2023-03-12T03:50:51;4.60;99.90
8862;DHT22;4799;50.996;4.754;2023-03-12T03:53:17;4.60;99.90
8862;DHT22;4799;50.996;4.754;2023-03-12T03:55:45;4.60;99.90
8862;DHT22;4799;50.996;4.754;2023-03-12T03:58:11;4.60;99.90
8862;DHT22;4799;50.996;4.754;2023-03-12T04:00:37;4.60;99.90
8862;DHT22;4799;50.996;4.754;2023-03-12T04:03:03;4.60;99.90
8862;DHT22;4799;50.996;4.754;2023-03-12T04:05:28;4.60;99.90
8862;DHT22;4799;50.996;4.754;2023-03-12T04:07:54;4.60;99.90
8862;DHT22;4799;50.996;4.754;2023-03-12T04:10:22;4.60;99.90
8862;DHT22;4799;50.996;4.754;2023-03-12T04:12:49;4.60;99.90
8862;DHT22;4799;50.996;4.754;2023-03-12T04:15:15;4.70;99.90
8862;DHT22;4799;50.996;4.754;2023-03-12T04:17:41;4.60;99.90
8862;DHT22;4799;50.996;4.754;2023-03-12T04:20:08;4.60;99.90
8862;DHT22;4799;50.996;4.754;2023-03-12T04:22:36;4.70;99.90
8862;DHT22;4799;50.996;4.754;2023-03-12T04:25:02;4.70;99.90
8862;DHT22;4799;50.996;4.754;2023-03-12T04:27:28;4.60;99.90
8862;DHT22;4799;50.996;4.754;2023-03-12T04:29:54;4.60;99.90
8862;DHT22;4799;50.996;4.754;2023-03-12T04:32:20;4.70;99.90
8862;DHT22;4799;50.996;4.754;2023-03-12T04:34:45;4.70;99.90
8862;DHT22;4799;50.996;4.754;2023-03-12T04:37:11;4.70;99.90
8862;DHT22;4799;50.996;4.754;2023-03-12T04:39:40;4.70;99.90
8862;DHT22;4799;50.996;4.754;2023-03-12T04:42:07;4.70;99.90
8862;DHT22;4799;50.996;4.754;2023-03-12T04:44:33;4.70;99.90
8862;DHT22;4799;50.996;4.754;2023-03-12T04:46:59;4.70;99.90
8862;DHT22;4799;50.996;4.754;2023-03-12T04:49:25;4.70;99.90
8862;DHT22;4799;50.996;4.754;2023-03-12T04:51:51;4.80;99.90
8862;DHT22;4799;50.996;4.754;2023-03-12T04:54:16;4.80;99.90
8862;DHT22;4799;50.996;4.754;2023-03-12T04:56:42;4.80;99.90
8862;DHT22;4799;50.996;4.754;2023-03-12T04:59:08;4.80;99.90
8862;DHT22;4799;50.996;4.754;2023-03-12T05:01:36;4.80;99.90
8862;DHT22;4799;50.996;4.754;2023-03-12T05:04:02;4.80;99.90
8862;DHT22;4799;50.996;4.754;2023-03-12T05:06:27;4.80;99.90
8862;DHT22;4799;50.996;4.754;2023-03-12T05:08:53;4.90;99.90
8862;DHT22;4799;50.996;4.754;2023-03-12T05:11:19;4.90;99.90
8862;DHT22;4799;50.996;4.754;2023-03-12T05:13:45;4.90;99.90
8862;DHT22;4799;50.996;4.754;2023-03-12T05:16:12;4.90;99.90
8862;DHT22;4799;50.996;4.754;2023-03-12T05:18:39;4.90;99.90
8862;DHT22;4799;50.996;4.754;2023-03-12T05:21:16;4.90;99.90
8862;DHT22;4799;50.996;4.754;2023-03-12T05:23:43;4.90;99.90
8862;DHT22;4799;50.996;4.754;2023-03-12T05:26:23;4.90;99.90
8862;DHT22;4799;50.996;4.754;2023-03-12T05:28:50;4.90;99.90
8862;DHT22;4799;50.996;4.754;2023-03-12T05:31:16;4.90;99.90
8862;DHT22;4799;50.996;4.754;2023-03-12T05:33:42;4.90;99.90
8862;DHT22;4799;50.996;4.754;2023-03-12T05:36:09;5.00;99.90
8862;DHT22;4799;50.996;4.754;2023-03-12T05:38:35;5.00;99.90
8862;DHT22;4799;50.996;4.754;2023-03-12T05:41:02;5.00;99.90
8862;DHT22;4799;50.996;4.754;2023-03-12T05:43:28;5.00;99.90
8862;DHT22;4799;50.996;4.754;2023-03-12T05:45:58;5.00;99.90
8862;DHT22;4799;50.996;4.754;2023-03-12T05:48:25;5.00;99.90
8862;DHT22;4799;50.996;4.754;2023-03-12T05:50:51;5.10;99.90
8862;DHT22;4799;50.996;4.754;2023-03-12T05:53:16;5.10;99.90
8862;DHT22;4799;50.996;4.754;2023-03-12T05:55:42;5.10;99.90
8862;DHT22;4799;50.996;4.754;2023-03-12T05:58:08;5.10;99.90
8862;DHT22;4799;50.996;4.754;2023-03-12T06:00:34;5.10;99.90
8862;DHT22;4799;50.996;4.754;2023-03-12T06:03:05;5.10;99.90
8862;DHT22;4799;50.996;4.754;2023-03-12T06:05:33;5.20;99.90
8862;DHT22;4799;50.996;4.754;2023-03-12T06:08:00;5.20;99.90
8862;DHT22;4799;50.996;4.754;2023-03-12T06:10:26;5.20;99.90
8862;DHT22;4799;50.996;4.754;2023-03-12T06:12:52;5.30;99.90
8862;DHT22;4799;50.996;4.754;2023-03-12T06:15:17;5.30;99.90
8862;DHT22;4799;50.996;4.754;2023-03-12T06:17:43;5.30;99.90
8862;DHT22;4799;50.996;4.754;2023-03-12T06:20:09;5.30;99.90
8862;DHT22;4799;50.996;4.754;2023-03-12T06:22:35;5.30;99.90
8862;DHT22;4799;50.996;4.754;2023-03-12T06:25:02;5.30;99.90
8862;DHT22;4799;50.996;4.754;2023-03-12T06:27:28;5.30;99.90
8862;DHT22;4799;50.996;4.754;2023-03-12T06:29:53;5.30;99.90
8862;DHT22;4799;50.996;4.754;2023-03-12T06:32:19;5.30;99.90
8862;DHT22;4799;50.996;4.754;2023-03-12T06:34:45;5.30;99.90
8862;DHT22;4799;50.996;4.754;2023-03-12T06:37:11;5.30;99.90
8862;DHT22;4799;50.996;4.754;2023-03-12T06:39:37;5.30;99.90
8862;DHT22;4799;50.996;4.754;2023-03-12T06:42:03;5.30;99.90
8862;DHT22;4799;50.996;4.754;2023-03-12T06:44:29;5.30;99.90
8862;DHT22;4799;50.996;4.754;2023-03-12T06:46:55;5.30;99.90
8862;DHT22;4799;50.996;4.754;2023-03-12T06:49:22;5.40;99.90
8862;DHT22;4799;50.996;4.754;2023-03-12T06:51:47;5.40;99.90
8862;DHT22;4799;50.996;4.754;2023-03-12T06:54:13;5.40;99.90
8862;DHT22;4799;50.996;4.754;2023-03-12T06:56:39;5.40;99.90
8862;DHT22;4799;50.996;4.754;2023-03-12T06:59:05;5.40;99.90
8862;DHT22;4799;50.996;4.754;2023-03-12T07:01:31;5.50;99.90
8862;DHT22;4799;50.996;4.754;2023-03-12T07:03:57;5.50;99.90
8862;DHT22;4799;50.996;4.754;2023-03-12T07:06:23;5.50;99.90
8862;DHT22;4799;50.996;4.754;2023-03-12T07:08:50;5.60;99.90
8862;DHT22;4799;50.996;4.754;2023-03-12T07:11:16;5.60;99.90
8862;DHT22;4799;50.996;4.754;2023-03-12T07:13:44;5.70;99.90
8862;DHT22;4799;50.996;4.754;2023-03-12T07:16:11;5.70;99.90
8862;DHT22;4799;50.996;4.754;2023-03-12T07:18:37;5.80;99.90
8862;DHT22;4799;50.996;4.754;2023-03-12T07:21:03;5.90;99.90
8862;DHT22;4799;50.996;4.754;2023-03-12T07:23:29;5.90;99.90
8862;DHT22;4799;50.996;4.754;2023-03-12T07:25:55;6.00;99.90
8862;DHT22;4799;50.996;4.754;2023-03-12T07:28:21;6.00;99.90
8862;DHT22;4799;50.996;4.754;2023-03-12T07:30:47;6.10;99.90
8862;DHT22;4799;50.996;4.754;2023-03-12T07:33:17;6.20;99.90
8862;DHT22;4799;50.996;4.754;2023-03-12T07:35:44;6.30;99.90
8862;DHT22;4799;50.996;4.754;2023-03-12T07:38:10;6.30;99.90
8862;DHT22;4799;50.996;4.754;2023-03-12T07:40:36;6.40;99.90
8862;DHT22;4799;50.996;4.754;2023-03-12T07:43:03;6.50;99.90
8862;DHT22;4799;50.996;4.754;2023-03-12T07:45:38;6.50;99.90
8862;DHT22;4799;50.996;4.754;2023-03-12T07:48:05;6.60;99.90
8862;DHT22;4799;50.996;4.754;2023-03-12T07:50:32;6.70;99.90
8862;DHT22;4799;50.996;4.754;2023-03-12T07:52:58;6.80;99.90
8862;DHT22;4799;50.996;4.754;2023-03-12T07:55:23;6.90;99.90
8862;DHT22;4799;50.996;4.754;2023-03-12T07:57:49;7.00;99.90
8862;DHT22;4799;50.996;4.754;2023-03-12T08:00:15;7.00;99.90
8862;DHT22;4799;50.996;4.754;2023-03-12T08:02:41;7.10;99.90
8862;DHT22;4799;50.996;4.754;2023-03-12T08:05:08;7.30;99.90
8862;DHT22;4799;50.996;4.754;2023-03-12T08:07:34;7.30;99.90
8862;DHT22;4799;50.996;4.754;2023-03-12T08:10:02;7.50;99.90
8862;DHT22;4799;50.996;4.754;2023-03-12T08:12:29;7.60;99.90
8862;DHT22;4799;50.996;4.754;2023-03-12T08:14:55;7.70;99.90
8862;DHT22;4799;50.996;4.754;2023-03-12T08:17:21;7.80;99.90
8862;DHT22;4799;50.996;4.754;2023-03-12T08:19:47;7.80;99.90
8862;DHT22;4799;50.996;4.754;2023-03-12T08:22:13;7.90;99.90
8862;DHT22;4799;50.996;4.754;2023-03-12T08:24:39;7.90;99.90
8862;DHT22;4799;50.996;4.754;2023-03-12T08:27:05;8.00;99.90
8862;DHT22;4799;50.996;4.754;2023-03-12T08:29:30;8.00;99.90
8862;DHT22;4799;50.996;4.754;2023-03-12T08:31:58;8.10;99.90
8862;DHT22;4799;50.996;4.754;2023-03-12T08:34:24;8.10;99.90
8862;DHT22;4799;50.996;4.754;2023-03-12T08:36:50;8.20;99.90
8862;DHT22;4799;50.996;4.754;2023-03-12T08:39:16;8.30;99.90
8862;DHT22;4799;50.996;4.754;2023-03-12T08:41:42;8.40;99.90
8862;DHT22;4799;50.996;4.754;2023-03-12T08:44:08;8.50;99.90
8862;DHT22;4799;50.996;4.754;2023-03-12T08:46:34;8.60;99.90
8862;DHT22;4799;50.996;4.754;2023-03-12T08:49:00;8.70;99.90
8862;DHT22;4799;50.996;4.754;2023-03-12T08:51:25;8.80;99.90
8862;DHT22;4799;50.996;4.754;2023-03-12T08:53:51;8.90;99.90
8862;DHT22;4799;50.996;4.754;2023-03-12T08:56:17;9.00;99.90
8862;DHT22;4799;50.996;4.754;2023-03-12T08:58:43;9.20;99.90
8862;DHT22;4799;50.996;4.754;2023-03-12T09:01:10;9.30;99.90
8862;DHT22;4799;50.996;4.754;2023-03-12T09:03:36;9.40;99.90
8862;DHT22;4799;50.996;4.754;2023-03-12T09:06:08;9.60;99.90
8862;DHT22;4799;50.996;4.754;2023-03-12T09:08:44;9.70;99.90
8862;DHT22;4799;50.996;4.754;2023-03-12T09:11:11;9.90;99.90
8862;DHT22;4799;50.996;4.754;2023-03-12T09:13:38;10.00;99.90
8862;DHT22;4799;50.996;4.754;2023-03-12T09:16:04;10.10;99.90
8862;DHT22;4799;50.996;4.754;2023-03-12T09:18:31;10.20;99.90
8862;DHT22;4799;50.996;4.754;2023-03-12T09:20:57;10.30;99.90
8862;DHT22;4799;50.996;4.754;2023-03-12T09:23:24;10.40;99.90
8862;DHT22;4799;50.996;4.754;2023-03-12T09:25:50;10.50;99.90
8862;DHT22;4799;50.996;4.754;2023-03-12T09:28:16;10.70;99.90
8862;DHT22;4799;50.996;4.754;2023-03-12T09:30:42;10.80;99.90
8862;DHT22;4799;50.996;4.754;2023-03-12T09:33:08;10.90;99.90
8862;DHT22;4799;50.996;4.754;2023-03-12T09:35:34;11.00;99.90
8862;DHT22;4799;50.996;4.754;2023-03-12T09:38:01;11.10;99.90
8862;DHT22;4799;50.996;4.754;2023-03-12T09:40:30;11.20;99.90
8862;DHT22;4799;50.996;4.754;2023-03-12T09:43:01;11.30;99.90
8862;DHT22;4799;50.996;4.754;2023-03-12T09:45:31;11.50;99.90
8862;DHT22;4799;50.996;4.754;2023-03-12T09:48:02;11.60;99.90
8862;DHT22;4799;50.996;4.754;2023-03-12T09:50:35;11.70;99.90
8862;DHT22;4799;50.996;4.754;2023-03-12T09:55:50;11.90;99.90
8862;DHT22;4799;50.996;4.754;2023-03-12T09:58:27;12.00;99.90
8862;DHT22;4799;50.996;4.754;2023-03-12T10:06:37;12.50;99.90
8862;DHT22;4799;50.996;4.754;2023-03-12T10:15:08;12.80;99.90
8862;DHT22;4799;50.996;4.754;2023-03-12T10:25:56;13.00;99.90
8862;DHT22;4799;50.996;4.754;2023-03-12T10:28:36;13.00;99.90
8862;DHT22;4799;50.996;4.754;2023-03-12T10:31:29;13.00;99.90
8862;DHT22;4799;50.996;4.754;2023-03-12T10:33:59;13.20;99.90
8862;DHT22;4799;50.996;4.754;2023-03-12T10:38:51;13.30;99.90
8862;DHT22;4799;50.996;4.754;2023-03-12T10:41:21;13.20;99.90
8862;DHT22;4799;50.996;4.754;2023-03-12T10:43:47;13.10;99.90
8862;DHT22;4799;50.996;4.754;2023-03-12T10:48:39;13.00;99.90
8862;DHT22;4799;50.996;4.754;2023-03-12T10:51:07;13.00;99.90
8862;DHT22;4799;50.996;4.754;2023-03-12T10:53:34;13.10;99.90
8862;DHT22;4799;50.996;4.754;2023-03-12T10:56:04;13.20;99.90
8862;DHT22;4799;50.996;4.754;2023-03-12T10:58:32;13.10;99.90
8862;DHT22;4799;50.996;4.754;2023-03-12T11:01:00;13.00;99.90
8862;DHT22;4799;50.996;4.754;2023-03-12T11:03:27;13.10;99.90
8862;DHT22;4799;50.996;4.754;2023-03-12T11:05:55;13.20;99.90
8862;DHT22;4799;50.996;4.754;2023-03-12T11:08:28;13.30;99.90
8862;DHT22;4799;50.996;4.754;2023-03-12T11:10:55;13.40;99.90
8862;DHT22;4799;50.996;4.754;2023-03-12T11:15:48;13.90;99.90
8862;DHT22;4799;50.996;4.754;2023-03-12T11:23:38;14.30;99.90
8862;DHT22;4799;50.996;4.754;2023-03-12T11:26:22;14.40;99.90
8862;DHT22;4799;50.996;4.754;2023-03-12T11:31:26;14.30;99.90
8862;DHT22;4799;50.996;4.754;2023-03-12T11:33:58;14.30;99.90
8862;DHT22;4799;50.996;4.754;2023-03-12T11:39:22;14.30;99.90
8862;DHT22;4799;50.996;4.754;2023-03-12T11:44:38;14.30;99.90
8862;DHT22;4799;50.996;4.754;2023-03-12T12:07:15;14.40;99.90
8862;DHT22;4799;50.996;4.754;2023-03-12T12:09:27;14.50;99.90
8862;DHT22;4799;50.996;4.754;2023-03-12T12:20:16;14.50;99.90
8862;DHT22;4799;50.996;4.754;2023-03-12T12:26:03;14.10;99.90
8862;DHT22;4799;50.996;4.754;2023-03-12T12:31:37;13.90;99.90
8862;DHT22;4799;50.996;4.754;2023-03-12T12:36:34;14.00;99.90
8862;DHT22;4799;50.996;4.754;2023-03-12T12:41:35;14.20;99.90
8862;DHT22;4799;50.996;4.754;2023-03-12T12:44:08;14.40;99.90
8862;DHT22;4799;50.996;4.754;2023-03-12T12:46:39;14.60;99.90
8862;DHT22;4799;50.996;4.754;2023-03-12T12:49:13;14.80;99.90
8862;DHT22;4799;50.996;4.754;2023-03-12T12:51:43;14.90;99.90
8862;DHT22;4799;50.996;4.754;2023-03-12T12:56:59;15.00;99.90
8862;DHT22;4799;50.996;4.754;2023-03-12T13:02:20;14.80;99.90
8862;DHT22;4799;50.996;4.754;2023-03-12T13:04:47;14.80;99.90
8862;DHT22;4799;50.996;4.754;2023-03-12T13:09:44;15.00;99.90
8862;DHT22;4799;50.996;4.754;2023-03-12T13:12:30;15.10;99.90
8862;DHT22;4799;50.996;4.754;2023-03-12T13:14:58;15.20;99.90
8862;DHT22;4799;50.996;4.754;2023-03-12T13:30:52;15.50;99.90
8862;DHT22;4799;50.996;4.754;2023-03-12T13:33:19;15.50;99.90
8862;DHT22;4799;50.996;4.754;2023-03-12T13:41:30;15.50;99.90
8862;DHT22;4799;50.996;4.754;2023-03-12T13:43:56;15.40;99.90
8862;DHT22;4799;50.996;4.754;2023-03-12T13:46:37;15.40;99.90
8862;DHT22;4799;50.996;4.754;2023-03-12T13:49:09;15.40;99.90
8862;DHT22;4799;50.996;4.754;2023-03-12T13:51:51;15.30;99.90
8862;DHT22;4799;50.996;4.754;2023-03-12T13:54:18;15.20;99.90
8862;DHT22;4799;50.996;4.754;2023-03-12T13:57:09;15.20;99.90
8862;DHT22;4799;50.996;4.754;2023-03-12T13:59:42;15.20;99.90
8862;DHT22;4799;50.996;4.754;2023-03-12T14:02:20;15.20;99.90
8862;DHT22;4799;50.996;4.754;2023-03-12T14:04:47;15.10;99.90
8862;DHT22;4799;50.996;4.754;2023-03-12T14:10:24;15.00;99.90
8862;DHT22;4799;50.996;4.754;2023-03-12T14:13:00;15.00;99.90
8862;DHT22;4799;50.996;4.754;2023-03-12T14:18:29;14.80;99.90
8862;DHT22;4799;50.996;4.754;2023-03-12T14:21:00;14.70;99.90
8862;DHT22;4799;50.996;4.754;2023-03-12T14:23:38;14.70;99.90
8862;DHT22;4799;50.996;4.754;2023-03-12T14:26:05;14.60;99.90
8862;DHT22;4799;50.996;4.754;2023-03-12T14:28:39;14.50;99.90
8862;DHT22;4799;50.996;4.754;2023-03-12T14:31:15;14.60;99.90
8862;DHT22;4799;50.996;4.754;2023-03-12T14:33:53;14.60;99.90
8862;DHT22;4799;50.996;4.754;2023-03-12T14:36:23;14.70;99.90
8862;DHT22;4799;50.996;4.754;2023-03-12T14:38:55;14.70;99.90
8862;DHT22;4799;50.996;4.754;2023-03-12T14:41:31;14.70;99.90
8862;DHT22;4799;50.996;4.754;2023-03-12T14:44:05;14.80;99.90
8862;DHT22;4799;50.996;4.754;2023-03-12T14:46:31;14.80;99.90
8862;DHT22;4799;50.996;4.754;2023-03-12T14:48:57;14.80;99.90
8862;DHT22;4799;50.996;4.754;2023-03-12T14:51:26;14.70;99.90
8862;DHT22;4799;50.996;4.754;2023-03-12T14:53:52;14.60;99.90
8862;DHT22;4799;50.996;4.754;2023-03-12T14:56:23;14.60;99.90
8862;DHT22;4799;50.996;4.754;2023-03-12T14:58:50;14.60;99.90
8862;DHT22;4799;50.996;4.754;2023-03-12T15:01:25;14.60;99.90
8862;DHT22;4799;50.996;4.754;2023-03-12T15:04:04;14.70;99.90
8862;DHT22;4799;50.996;4.754;2023-03-12T15:06:50;14.60;99.90
8862;DHT22;4799;50.996;4.754;2023-03-12T15:09:24;14.70;99.90
8862;DHT22;4799;50.996;4.754;2023-03-12T15:12:12;14.70;99.90
8862;DHT22;4799;50.996;4.754;2023-03-12T15:14:42;14.70;99.90
8862;DHT22;4799;50.996;4.754;2023-03-12T15:17:14;14.70;99.90
8862;DHT22;4799;50.996;4.754;2023-03-12T15:19:41;14.80;99.90
8862;DHT22;4799;50.996;4.754;2023-03-12T15:22:26;14.80;99.90
8862;DHT22;4799;50.996;4.754;2023-03-12T15:24:52;14.70;99.90
8862;DHT22;4799;50.996;4.754;2023-03-12T15:29:44;14.60;99.90
8862;DHT22;4799;50.996;4.754;2023-03-12T15:32:14;14.50;99.90
8862;DHT22;4799;50.996;4.754;2023-03-12T15:34:40;14.40;99.90
8862;DHT22;4799;50.996;4.754;2023-03-12T15:37:31;14.40;99.90
8862;DHT22;4799;50.996;4.754;2023-03-12T15:40:05;14.30;99.90
8862;DHT22;4799;50.996;4.754;2023-03-12T15:42:39;14.20;99.90
8862;DHT22;4799;50.996;4.754;2023-03-12T15:45:16;14.10;99.90
8862;DHT22;4799;50.996;4.754;2023-03-12T15:47:43;14.10;99.90
8862;DHT22;4799;50.996;4.754;2023-03-12T15:53:03;14.00;99.90
8862;DHT22;4799;50.996;4.754;2023-03-12T15:55:34;14.00;99.90
8862;DHT22;4799;50.996;4.754;2023-03-12T15:58:00;14.00;99.90
8862;DHT22;4799;50.996;4.754;2023-03-12T16:00:29;14.00;99.90
8862;DHT22;4799;50.996;4.754;2023-03-12T16:02:57;13.90;99.90
8862;DHT22;4799;50.996;4.754;2023-03-12T16:05:31;13.90;99.90
8862;DHT22;4799;50.996;4.754;2023-03-12T16:08:25;13.90;99.90
8862;DHT22;4799;50.996;4.754;2023-03-12T16:10:52;13.90;99.90
8862;DHT22;4799;50.996;4.754;2023-03-12T16:13:22;13.90;99.90
8862;DHT22;4799;50.996;4.754;2023-03-12T16:15:51;13.80;99.90
8862;DHT22;4799;50.996;4.754;2023-03-12T16:18:19;13.80;99.90
8862;DHT22;4799;50.996;4.754;2023-03-12T16:20:47;13.80;99.90
8862;DHT22;4799;50.996;4.754;2023-03-12T16:23:13;13.70;99.90
8862;DHT22;4799;50.996;4.754;2023-03-12T16:25:49;13.70;99.90
8862;DHT22;4799;50.996;4.754;2023-03-12T16:28:18;13.70;99.90
8862;DHT22;4799;50.996;4.754;2023-03-12T16:30:44;13.60;99.90
8862;DHT22;4799;50.996;4.754;2023-03-12T16:33:21;13.60;99.90
8862;DHT22;4799;50.996;4.754;2023-03-12T16:35:48;13.60;99.90
8862;DHT22;4799;50.996;4.754;2023-03-12T16:38:14;13.60;99.90
8862;DHT22;4799;50.996;4.754;2023-03-12T16:40:46;13.50;99.90
8862;DHT22;4799;50.996;4.754;2023-03-12T16:43:18;13.50;99.90
8862;DHT22;4799;50.996;4.754;2023-03-12T16:45:46;13.40;99.90
8862;DHT22;4799;50.996;4.754;2023-03-12T16:48:15;13.40;99.90
8862;DHT22;4799;50.996;4.754;2023-03-12T16:50:49;13.40;99.90
8862;DHT22;4799;50.996;4.754;2023-03-12T16:53:15;13.40;99.90
8862;DHT22;4799;50.996;4.754;2023-03-12T16:55:59;13.30;99.90
8862;DHT22;4799;50.996;4.754;2023-03-12T16:58:27;13.30;99.90
8862;DHT22;4799;50.996;4.754;2023-03-12T17:00:54;13.20;99.90
8862;DHT22;4799;50.996;4.754;2023-03-12T17:03:27;13.20;99.90
8862;DHT22;4799;50.996;4.754;2023-03-12T17:05:54;13.10;99.90
8862;DHT22;4799;50.996;4.754;2023-03-12T17:08:20;13.10;99.90
8862;DHT22;4799;50.996;4.754;2023-03-12T17:10:46;13.00;99.90
8862;DHT22;4799;50.996;4.754;2023-03-12T17:13:21;13.00;99.90
8862;DHT22;4799;50.996;4.754;2023-03-12T17:15:48;13.00;99.90
8862;DHT22;4799;50.996;4.754;2023-03-12T17:18:15;12.90;99.90
8862;DHT22;4799;50.996;4.754;2023-03-12T17:20:41;12.80;99.90
8862;DHT22;4799;50.996;4.754;2023-03-12T17:23:07;12.80;99.90
8862;DHT22;4799;50.996;4.754;2023-03-12T17:25:36;12.80;99.90
8862;DHT22;4799;50.996;4.754;2023-03-12T17:28:02;12.70;99.90
8862;DHT22;4799;50.996;4.754;2023-03-12T17:30:29;12.60;99.90
8862;DHT22;4799;50.996;4.754;2023-03-12T17:33:22;12.50;99.90
8862;DHT22;4799;50.996;4.754;2023-03-12T17:36:08;12.40;99.90
8862;DHT22;4799;50.996;4.754;2023-03-12T17:38:34;12.30;99.90
8862;DHT22;4799;50.996;4.754;2023-03-12T17:41:01;12.30;99.90
8862;DHT22;4799;50.996;4.754;2023-03-12T17:43:28;12.20;99.90
8862;DHT22;4799;50.996;4.754;2023-03-12T17:45:53;12.10;99.90
8862;DHT22;4799;50.996;4.754;2023-03-12T17:48:19;12.10;99.90
8862;DHT22;4799;50.996;4.754;2023-03-12T17:50:48;12.10;99.90
8862;DHT22;4799;50.996;4.754;2023-03-12T17:53:14;12.10;99.90
8862;DHT22;4799;50.996;4.754;2023-03-12T17:55:41;12.10;99.90
8862;DHT22;4799;50.996;4.754;2023-03-12T17:58:06;12.10;99.90
8862;DHT22;4799;50.996;4.754;2023-03-12T18:00:33;12.10;99.90
8862;DHT22;4799;50.996;4.754;2023-03-12T18:02:59;12.10;99.90
8862;DHT22;4799;50.996;4.754;2023-03-12T18:05:25;12.00;99.90
8862;DHT22;4799;50.996;4.754;2023-03-12T18:07:51;12.00;99.90
8862;DHT22;4799;50.996;4.754;2023-03-12T18:10:16;12.00;99.90
8862;DHT22;4799;50.996;4.754;2023-03-12T18:12:42;11.90;99.90
8862;DHT22;4799;50.996;4.754;2023-03-12T18:15:11;11.90;99.90
8862;DHT22;4799;50.996;4.754;2023-03-12T18:17:41;11.90;99.90
8862;DHT22;4799;50.996;4.754;2023-03-12T18:20:09;11.90;99.90
8862;DHT22;4799;50.996;4.754;2023-03-12T18:22:40;11.80;99.90
8862;DHT22;4799;50.996;4.754;2023-03-12T18:25:07;11.80;99.90